Whitleys Peak, Santa Catalina Island Weather observations

Data are for 10 minute period ending at time listed.
 Day   Time   Solar   Ave.   Ave.  Ave.  Vector    Max.   Stn.    Total
  of    of     Rad.   Air    Rel.  Wind   Wind     Wind   Baro.  Precip.
Year   Day            Temp.  Hum.  Speed  Dir.     Gust   Pres.         
2015   (PST)   W/m2    F      %     mph   deg.      mph    mb.     in.  
------------------------------------------------------------------------
 149    0:00    6.0    55   98.6     0     23.5     1.8    999.0   0.00  
 149    0:10    6.0    54   98.6     0    297.5     2.4    999.0   0.00  
 149    0:20    6.0    54   98.7     2      1.1     4.8    999.0   0.00  
 149    0:30    6.0    54   98.7     2    355.4     3.6    999.0   0.00  
 149    0:40    6.0    54   98.7     3      5.9     5.4    999.0   0.00  
 149    0:50    6.0    54   98.7     3      0.4     4.8    999.0   0.00  
 149    1:00    6.0    54   98.7     2     38.3     4.2    999.0   0.00  
 149    1:10    6.0    54   98.8     1    352.6     4.2    999.0   0.00  
 149    1:20    6.0    54   98.8     1    347.3     5.4    999.0   0.00  
 149    1:30    6.0    54   98.8     2    350.0     4.2    999.0   0.00  
 149    1:40    6.0    54   98.8     1     36.4     2.4    999.0   0.00  
 149    1:50    6.0    54   98.8     2     44.3     3.6    999.0   0.00  
 149    2:00    6.0    54   98.8     3     21.8     6.0    999.0   0.00  
 149    2:10    6.0    54   98.9     2      7.7     4.2    999.0   0.00  
 149    2:20    6.0    54   98.9     2     48.7     4.8    999.0   0.00  
 149    2:30    6.0    54   98.9     4     19.8     6.0    999.0   0.00  
 149    2:40    6.0    54   98.9     4     11.5     7.2    999.0   0.00  
 149    2:50    6.0    54   98.9     3     12.1     4.8    999.0   0.00  
 149    3:00    6.0    54   98.9     3     17.0     5.4    999.0   0.00  
 149    3:10    6.0    54   98.9     3     28.5     6.0    999.0   0.00  
 149    3:20    6.0    54   99.0     3     23.2     6.0    999.0   0.00  
 149    3:30    6.0    54   99.0     3     43.8     5.4    999.0   0.00  
 149    3:40    6.0    54   99.0     5      9.2     8.4    999.0   0.00  
 149    3:50    6.0    54   99.0     4     48.8     6.0    999.0   0.00  
 149    4:00    6.0    54   99.0     5     20.5     8.4    999.0   0.00  
 149    4:10    6.0    54   99.0     5     30.7     7.2    999.0   0.00  
 149    4:20    6.0    54   99.0     5     67.7     7.8    999.0   0.00  
 149    4:30    6.0    54   99.0     3     64.7     6.0    999.0   0.00  
 149    4:40    6.0    54   99.0     3     51.2     5.4    999.0   0.00  
 149    4:50    6.0    54   99.1     3     18.9     4.8    999.0   0.00  
 149    5:00    6.0    54   99.0     2     39.1     3.6    999.0   0.00  
 149    5:10   10.0    54   99.1     1     36.5     4.2    999.0   0.00  
 149    5:20   13.0    54   99.1     3     66.8     4.8    999.0   0.00  
 149    5:30   19.0    54   99.1     1     67.6     3.0    999.0   0.00  
 149    5:40   28.0    54   99.1     1    106.8     3.0    999.0   0.00  
 149    5:50   34.0    54   99.1     0     34.0     2.4    999.0   0.00  
 149    6:00   43.0    54   99.1     0    285.6     2.4    999.0   0.00  
 149    6:10   46.0    54   99.1     1     27.7     3.0    999.0   0.00  
 149    6:20   57.0    54   99.1     2    314.6     4.8    999.0   0.00  
 149    6:30   65.0    54   99.0     1     85.7     3.6    999.0   0.00  
 149    6:40   72.0    54   99.1     2    308.5     4.2    999.0   0.00  
 149    6:50   87.0    54   99.1     2    325.2     4.8    999.0   0.00  
 149    7:00   98.0    55   99.1     0    314.1     2.4    999.0   0.00  
 149    7:10  122.0    55   99.0     1    232.0     3.6    999.0   0.00  
 149    7:20  152.0    54   99.0     2    220.7     4.2    999.0   0.00  
 149    7:30  209.0    55   99.0     1    233.8     3.0    999.0   0.00  
 149    7:40  211.0    56   98.9     2     13.6     4.2    999.0   0.00  
 149    7:50  254.0    56   98.8     2     67.3     6.6    999.0   0.00  
 149    8:00  270.0    56   98.7     5     69.6     6.6    999.0   0.00  
 149    8:10  275.0    56   98.7     4     71.3     6.6    999.0   0.00  
 149    8:20  279.0    56   98.6     6     79.0     7.8    999.0   0.00  
 149    8:30  321.0    56   98.5     5     82.1     7.8    999.0   0.00  
 149    8:40  514.0    57   98.2     5     71.5     7.2    999.0   0.00  
 149    8:50  620.0    58   96.8     5     97.1     9.0    999.0   0.00  
 149    9:00  635.0    59   93.3     6     78.6     9.6    999.0   0.00  
 149    9:10  657.0    61   89.7     4     62.1     6.6    999.0   0.00  
 149    9:20  679.0    63   84.8     6     65.3     8.4    999.0   0.00  
 149    9:30  702.0    61   86.4     6     74.3     9.0    999.0   0.00  
 149    9:40  724.0    62   85.6     6     92.5     9.6    999.0   0.00  
 149    9:50  744.0    62   84.4     7     85.8    11.3    999.0   0.00  
 149   10:00  762.0    62   83.0     6     94.0    10.2    999.0   0.00  
 149   10:10  776.0    62   83.9     6     84.5     9.6    999.0   0.00  
 149   10:20  798.0    64   79.6     4     71.4     6.6    999.0   0.00  
 149   10:30  815.0    67   73.7     4     46.5     8.4    999.0   0.00  
 149   10:40  829.0    68   71.9     5     52.5     7.8    999.0   0.00  
 149   10:50  842.0    67   72.4     5     44.9     8.4    999.0   0.00  
 149   11:00  853.0    66   75.3     4     22.2     8.4    999.0   0.00  
 149   11:10  862.0    65   76.0     4     27.0     7.2    999.0   0.00  
 149   11:20  866.0    67   72.4     5     45.5     7.2    999.0   0.00  
 149   11:30  875.0    67   71.7     5     27.6     7.8    999.0   0.00  
 149   11:40  872.0    67   71.9     5     40.8     9.0    999.0   0.00  
 149   11:50  874.0    65   75.1     5      9.7     7.8    999.0   0.00  
 149   12:00  871.0    64   78.8     4      6.1     7.8    999.0   0.00  
 149   12:10  875.0    66   75.3     4      0.0     7.2    999.0   0.00  
 149   12:20  857.0    66   74.5     4     12.4     7.2    999.0   0.00  
 149   12:30  868.0    66   74.1     5      4.2     9.0    999.0   0.00  
 149   12:40  887.0    65   75.9     4     17.6     7.8    999.0   0.00  
 149   12:50  859.0    66   74.2     4     14.7     6.0    999.0   0.00  
 149   13:00  857.0    67   72.1     4     57.8     7.2    999.0   0.00  
 149   13:10  860.0    66   74.9     4     56.9     7.2    999.0   0.00  
 149   13:20  855.0    66   73.7     4     74.8     7.2    999.0   0.00  
 149   13:30  835.0    65   78.5     4     64.5     6.6    999.0   0.00  
 149   13:40  827.0    67   74.5     4     63.3     6.6    999.0   0.00  
 149   13:50  765.0    67   73.8     3     39.4     6.6    999.0   0.00  
 149   14:00  769.0    68   73.3     4     41.3     6.0    999.0   0.00  
 149   14:10  775.0    65   77.9     4    106.3     7.8    999.0   0.00  
 149   14:20  738.0    66   78.0     4    123.5     6.6    999.0   0.00  
 149   14:30  698.0    68   73.9     3     27.5     5.4    999.0   0.00  
 149   14:40  691.0    69   72.1     3     22.5     5.4    999.0   0.00  
 149   14:50  689.0    66   76.5     3     96.6     6.0    999.0   0.00  
 149   15:00  665.0    68   73.0     3     21.9     5.4    999.0   0.00  
 149   15:10  575.0    67   74.5     2     66.1     3.6    999.0   0.00  
 149   15:20  381.0    66   77.7     0     60.6     3.0    999.0   0.00  
 149   15:30  546.0    68   73.9     0    344.3     1.2    999.0   0.00  
 149   15:40  534.0    69   70.7     0      0.0     0.0    999.0   0.00  
 149   15:50  580.0    69   69.6     0      0.0     0.0    999.0   0.00  
 149   16:00  511.0    70   68.2     0      0.0     0.0    999.0   0.00  
 149   16:10  454.0    71   65.9     1    294.7     7.2    999.0   0.00  
 149   16:20  419.0    68   71.4     2    351.9     5.4    999.0   0.00  
 149   16:30  253.0    66   75.8     2    292.6     6.0    999.0   0.00  
 149   16:40  263.0    67   74.2     3    265.8     6.0    999.0   0.00  
 149   16:50  386.0    69   67.9     6    254.9     9.6    999.0   0.00  
 149   17:00  342.0    69   67.8     4    263.8     9.0    999.0   0.00  
 149   17:10  292.0    68   70.9     3    276.7     4.8    999.0   0.00  
 149   17:20  257.0    69   68.9     3    265.2     6.0    999.0   0.00  
 149   17:30  248.0    68   68.2     6    234.3     8.4    999.0   0.00  
 149   17:40  210.0    69   66.7     6    236.7     7.8    999.0   0.00  
 149   17:50  172.0    68   68.6     5    243.5     7.2    999.0   0.00  
 149   18:00  119.0    66   72.6     5    239.4     6.0    999.0   0.00  
 149   18:10   84.0    65   74.5     4    242.1     6.0    999.0   0.00  
 149   18:20   67.0    63   78.8     4    230.1     6.6    999.0   0.00  
 149   18:30   48.0    62   81.7     4    217.4     6.0    999.0   0.00  
 149   18:40   38.0    62   80.4     5    192.5     7.8    999.0   0.00  
 149   18:50   24.0    64   73.8     2    126.2     3.6    999.0   0.00  
 149   19:00   10.0    61   81.7     4    180.8     6.0    999.0   0.00  
 149   19:10    5.0    59   86.9     5    186.9     7.8    999.0   0.00  
 149   19:20    0.0    57   90.2     6    187.6     9.6    999.0   0.00  
 149   19:30    0.0    56   92.3     8    183.0    10.2    999.0   0.00  
 149   19:40    0.0    57   90.2     5    176.4     9.6    999.0   0.00  
 149   19:50    0.0    57   90.1     5    175.5     7.8    999.0   0.00  
 149   20:00    0.0    62   64.0     2    124.4     3.6    999.0   0.00  
 149   20:10    0.0    64   62.4     0    111.0     3.0    999.0   0.00  
 149   20:20    0.0    64   64.2     0      0.0     0.0    999.0   0.00  
 149   20:30    0.0    65   62.3     0      0.0     0.0    999.0   0.00  
 149   20:40    0.0    63   67.8     0      0.0     0.0    999.0   0.00  
 149   20:50    0.0    64   67.0     0      0.0     0.0    999.0   0.00  
 149   21:00    0.0    64   61.6     4    119.5     6.0    999.0   0.00  
 149   21:10    0.0    64   66.1     6    121.2     6.6    999.0   0.00  
 149   21:20    0.0    64   61.3     4    145.4     6.0    999.0   0.00  
 149   21:30    0.0    66   51.7     5    159.9     6.6    999.0   0.00  
 149   21:40    0.0    64   58.9     4    176.4     6.0    999.0   0.00  
 149   21:50    0.0    62   68.8     3    171.7     6.0    999.0   0.00  
 149   22:00    0.0    61   69.3     3    205.3     5.4    999.0   0.00  
 149   22:10    0.0    62   63.8     5    201.3     6.0    999.0   0.00  
 149   22:20    0.0    64   57.1     2    191.4     4.8    999.0   0.00  
 149   22:30    0.0    64   54.4     1    236.6     3.0    999.0   0.00  
 149   22:40    0.0    64   53.7     1    241.2     4.2    999.0   0.00  
 149   22:50    0.0    65   52.6     2    210.5     3.6    999.0   0.00  

Return to Whitleys Peak graphs page.


Western Regional Climate Center,wrcc@dri.edu